createdAt,value
2023-08-13T00:03:13.654Z,65.09
2023-08-13T00:08:15.536Z,65.05
2023-08-13T00:13:17.711Z,65.66
2023-08-13T00:18:19.679Z,65.60
2023-08-13T00:23:21.836Z,65.92
2023-08-13T00:28:23.870Z,66.33
2023-08-13T00:33:25.818Z,67.04
2023-08-13T00:38:27.810Z,67.11
2023-08-13T00:43:29.946Z,67.42
2023-08-13T00:48:33.100Z,67.62
2023-08-13T00:53:45.047Z,67.84
2023-08-13T00:58:47.977Z,68.22
2023-08-13T01:03:49.955Z,67.85
2023-08-13T01:09:32.192Z,68.51
2023-08-13T01:14:43.443Z,68.48
2023-08-13T01:19:45.242Z,68.09
2023-08-13T01:24:47.333Z,68.40
2023-08-13T01:30:00.558Z,68.58
2023-08-13T01:35:04.213Z,68.81
2023-08-13T01:40:07.624Z,68.38
2023-08-13T01:45:09.764Z,68.79
2023-08-13T01:50:11.677Z,68.67
2023-08-13T01:55:13.543Z,68.92
2023-08-13T02:00:15.633Z,69.18
2023-08-13T02:05:18.678Z,69.49
2023-08-13T02:10:20.831Z,69.40
2023-08-13T02:15:22.878Z,69.87
2023-08-13T02:20:24.845Z,69.69
2023-08-13T02:25:26.852Z,69.50
2023-08-13T02:30:28.990Z,70.00
2023-08-13T02:35:30.905Z,69.80
2023-08-13T02:40:34.383Z,70.18
2023-08-13T02:45:36.468Z,70.02
2023-08-13T02:50:38.532Z,70.43
2023-08-13T02:55:40.381Z,70.38
2023-08-13T03:00:42.268Z,70.46
2023-08-13T03:05:45.491Z,70.19
2023-08-13T03:10:47.486Z,70.50
2023-08-13T03:15:49.600Z,70.75
2023-08-13T03:20:51.802Z,70.58
2023-08-13T03:25:53.795Z,70.71
2023-08-13T03:31:03.102Z,71.05
2023-08-13T03:36:17.794Z,70.90
2023-08-13T03:41:20.224Z,71.25
2023-08-13T03:46:22.256Z,71.39
2023-08-13T03:51:24.267Z,71.65
2023-08-13T03:56:27.345Z,71.43
2023-08-13T04:01:29.378Z,71.60
2023-08-13T04:06:32.292Z,71.58
2023-08-13T04:11:34.544Z,71.66
2023-08-13T04:16:36.534Z,71.95
2023-08-13T04:21:38.679Z,71.65
2023-08-13T04:26:40.703Z,72.17
2023-08-13T04:31:44.736Z,72.17
2023-08-13T04:36:47.545Z,71.98
2023-08-13T04:41:49.965Z,72.28
2023-08-13T04:46:54.620Z,72.26
2023-08-13T04:51:56.659Z,72.13
2023-08-13T04:56:58.793Z,72.35
2023-08-13T05:02:01.537Z,72.65
2023-08-13T05:07:04.005Z,72.76
2023-08-13T05:12:07.714Z,72.41
2023-08-13T05:17:20.740Z,72.74
2023-08-13T05:22:23.245Z,72.74
2023-08-13T05:27:25.397Z,72.62
2023-08-13T05:32:27.858Z,72.71
2023-08-13T05:37:30.632Z,72.67
2023-08-13T05:42:32.654Z,72.79
2023-08-13T05:47:34.643Z,73.25
2023-08-13T05:52:36.497Z,73.23
2023-08-13T05:57:38.593Z,72.86
2023-08-13T06:02:40.641Z,73.38
2023-08-13T06:07:42.637Z,73.33
2023-08-13T06:12:44.627Z,73.25
2023-08-13T06:17:48.224Z,73.30
2023-08-13T06:22:50.155Z,73.22
2023-08-13T06:27:52.054Z,73.10
2023-08-13T06:32:53.922Z,73.12
2023-08-13T06:38:01.914Z,73.02
2023-08-13T06:43:04.533Z,72.99
2023-08-13T06:48:06.719Z,72.84
2023-08-13T06:53:08.673Z,72.61
2023-08-13T06:58:10.531Z,72.72
2023-08-13T07:03:12.763Z,73.31
2023-08-13T07:08:14.716Z,73.11
2023-08-13T07:13:17.525Z,73.48
2023-08-13T07:18:19.498Z,73.52
2023-08-13T07:23:21.663Z,73.48
2023-08-13T07:28:23.934Z,73.11
2023-08-13T07:33:26.199Z,73.29
2023-08-13T07:38:29.396Z,73.12
2023-08-13T07:43:32.770Z,73.22
2023-08-13T07:48:34.705Z,72.83
2023-08-13T07:53:36.710Z,72.75
2023-08-13T07:58:39.618Z,72.69
2023-08-13T08:03:42.728Z,72.41
2023-08-13T08:08:44.747Z,72.06
2023-08-13T08:13:46.728Z,72.21
2023-08-13T08:18:48.639Z,71.88
2023-08-13T08:23:51.099Z,71.20
2023-08-13T08:28:56.210Z,71.20
2023-08-13T08:33:58.495Z,71.00
2023-08-13T08:39:00.442Z,70.79
2023-08-13T08:44:02.440Z,71.09
2023-08-13T08:49:05.347Z,71.08
2023-08-13T08:54:07.258Z,71.50
2023-08-13T08:59:09.477Z,70.87
2023-08-13T09:04:11.625Z,70.51
2023-08-13T09:09:13.745Z,70.00
2023-08-13T09:14:16.199Z,69.57
2023-08-13T09:19:20.343Z,69.74
2023-08-13T09:24:32.502Z,69.63
2023-08-13T09:29:35.847Z,69.75
2023-08-13T09:34:38.271Z,69.44
2023-08-13T09:39:41.761Z,69.39
2023-08-13T09:44:45.067Z,68.60
2023-08-13T09:49:47.844Z,68.49
2023-08-13T09:54:53.974Z,68.10
2023-08-13T09:59:57.304Z,68.15
2023-08-13T10:05:00.193Z,68.25
2023-08-13T10:10:07.737Z,67.83
2023-08-13T10:15:11.182Z,68.35
2023-08-13T10:20:13.647Z,68.40
2023-08-13T10:25:33.828Z,68.02
2023-08-13T10:30:35.934Z,67.73
2023-08-13T10:35:40.748Z,67.84
2023-08-13T10:41:00.811Z,68.27
2023-08-13T10:46:07.100Z,68.23
2023-08-13T10:51:10.834Z,68.14
2023-08-13T10:56:18.613Z,68.03
2023-08-13T11:01:21.819Z,68.12
2023-08-13T11:06:26.535Z,67.66
2023-08-13T11:11:28.613Z,67.32
2023-08-13T11:16:30.711Z,67.32
2023-08-13T11:21:32.862Z,66.80
2023-08-13T11:26:35.875Z,66.19
2023-08-13T11:31:39.600Z,66.30
2023-08-13T11:36:41.675Z,66.02
2023-08-13T11:41:45.038Z,66.20
2023-08-13T11:46:57.674Z,66.19
2023-08-13T11:52:00.696Z,66.12
2023-08-13T11:57:04.638Z,65.85
2023-08-13T12:02:06.659Z,65.78
2023-08-13T12:07:10.847Z,65.79
2023-08-13T12:12:15.773Z,65.95
2023-08-13T12:17:17.970Z,65.59
2023-08-13T12:22:19.790Z,65.92
2023-08-13T12:27:24.680Z,66.07
2023-08-13T12:32:26.647Z,65.95
2023-08-13T12:37:28.622Z,65.69
2023-08-13T12:42:30.840Z,65.15
2023-08-13T12:47:36.507Z,64.94
2023-08-13T12:52:38.507Z,64.72
2023-08-13T12:57:40.533Z,65.15
2023-08-13T13:02:42.607Z,64.91
2023-08-13T13:07:44.589Z,64.15
2023-08-13T13:12:46.512Z,63.77
2023-08-13T13:17:48.527Z,63.67
2023-08-13T13:22:50.554Z,63.79
2023-08-13T13:27:52.568Z,63.49
2023-08-13T13:32:54.535Z,63.18
2023-08-13T13:37:58.116Z,62.63
2023-08-13T13:43:00.088Z,62.40
2023-08-13T13:48:02.896Z,62.35
2023-08-13T13:53:19.359Z,62.02
2023-08-13T13:58:21.713Z,62.44
2023-08-13T14:03:23.651Z,62.42
2023-08-13T14:08:25.763Z,62.06
2023-08-13T14:13:28.302Z,61.95
2023-08-13T14:18:30.320Z,61.62
2023-08-13T14:23:32.241Z,61.13
2023-08-13T14:28:34.215Z,60.99
2023-08-13T14:33:36.312Z,61.34
2023-08-13T14:38:39.020Z,61.07
2023-08-13T14:43:42.168Z,61.19
2023-08-13T14:48:44.062Z,61.08
2023-08-13T14:53:46.077Z,60.84
2023-08-13T14:58:48.211Z,60.48
2023-08-13T15:03:50.280Z,60.27
2023-08-13T15:08:55.225Z,60.47
2023-08-13T15:13:57.275Z,60.01
2023-08-13T15:18:59.282Z,59.91
2023-08-13T15:24:01.778Z,59.87
2023-08-13T15:29:04.483Z,59.90
2023-08-13T15:34:06.761Z,59.78
2023-08-13T15:39:10.404Z,59.58
2023-08-13T15:44:12.563Z,59.78
2023-08-13T15:49:14.441Z,59.62
2023-08-13T15:54:16.285Z,59.32
2023-08-13T15:59:18.238Z,59.46
2023-08-13T16:04:20.560Z,59.37
2023-08-13T16:09:23.606Z,58.65
2023-08-13T16:14:25.713Z,58.81
2023-08-13T16:19:27.939Z,58.98
2023-08-13T16:24:29.968Z,59.13
2023-08-13T16:29:32.042Z,59.25
2023-08-13T16:34:34.280Z,59.14
2023-08-13T16:39:36.460Z,59.07
2023-08-13T16:44:38.361Z,58.94
2023-08-13T16:49:40.355Z,59.26
2023-08-13T16:54:42.808Z,59.25
2023-08-13T16:59:45.507Z,59.39
2023-08-13T17:04:47.454Z,59.37
2023-08-13T17:09:49.507Z,59.36
2023-08-13T17:14:52.227Z,59.32
2023-08-13T17:19:55.615Z,59.35
2023-08-13T17:24:57.561Z,59.95
2023-08-13T17:29:59.575Z,59.50
2023-08-13T17:35:01.502Z,59.65
2023-08-13T17:40:05.471Z,59.60
2023-08-13T17:45:08.257Z,60.00
2023-08-13T17:50:10.880Z,60.64
2023-08-13T17:55:12.921Z,60.88
2023-08-13T18:00:15.174Z,61.66
2023-08-13T18:05:20.168Z,61.94
2023-08-13T18:10:22.230Z,61.99
2023-08-13T18:15:24.680Z,62.01
2023-08-13T18:20:26.765Z,61.73
2023-08-13T18:25:28.950Z,62.20
2023-08-13T18:30:31.090Z,62.25
2023-08-13T18:35:33.472Z,62.51
2023-08-13T18:40:35.537Z,62.40
2023-08-13T18:45:37.520Z,62.46
2023-08-13T18:50:39.711Z,62.72
2023-08-13T18:55:41.925Z,62.83
2023-08-13T19:00:44.834Z,63.00
2023-08-13T19:05:46.766Z,62.82
2023-08-13T19:10:48.785Z,62.73
2023-08-13T19:15:50.622Z,62.90
2023-08-13T19:20:52.507Z,63.00
2023-08-13T19:25:55.222Z,63.36
2023-08-13T19:30:57.239Z,63.93
2023-08-13T19:35:59.298Z,63.63
2023-08-13T19:41:01.395Z,63.84
2023-08-13T19:46:03.435Z,63.24
2023-08-13T19:51:05.308Z,63.63
2023-08-13T19:56:07.179Z,63.96
2023-08-13T20:01:09.056Z,63.48
2023-08-13T20:06:10.886Z,63.59
2023-08-13T20:11:12.886Z,63.81
2023-08-13T20:16:14.920Z,63.82
2023-08-13T20:21:16.827Z,64.01
2023-08-13T20:26:18.695Z,64.04
2023-08-13T20:31:20.636Z,64.02
2023-08-13T20:36:22.628Z,64.18
2023-08-13T20:41:24.617Z,64.03
2023-08-13T20:46:26.432Z,64.31
2023-08-13T20:51:28.409Z,64.75
2023-08-13T20:56:30.986Z,64.18
2023-08-13T21:01:34.042Z,64.40
2023-08-13T21:06:35.951Z,64.61
2023-08-13T21:11:38.047Z,64.91
2023-08-13T21:16:39.834Z,64.86
2023-08-13T21:21:41.934Z,65.25
2023-08-13T21:26:43.785Z,65.17
2023-08-13T21:31:45.593Z,65.20
2023-08-13T21:36:47.491Z,65.30
2023-08-13T21:41:49.389Z,65.53
2023-08-13T21:46:51.272Z,65.62
2023-08-13T21:51:53.710Z,65.27
2023-08-13T21:56:55.763Z,65.55
2023-08-13T22:01:57.677Z,65.63
2023-08-13T22:07:00.533Z,65.88
2023-08-13T22:12:02.523Z,65.84
2023-08-13T22:17:04.670Z,65.92
2023-08-13T22:22:06.581Z,65.53
2023-08-13T22:27:08.919Z,65.38
2023-08-13T22:32:10.959Z,65.29
2023-08-13T22:37:12.816Z,65.01
2023-08-13T22:42:15.281Z,64.89
2023-08-13T22:47:17.413Z,64.83
2023-08-13T22:52:19.467Z,64.79
2023-08-13T22:57:21.778Z,64.91
2023-08-13T23:02:23.596Z,64.75
2023-08-13T23:07:26.052Z,64.92
2023-08-13T23:12:27.910Z,65.07
2023-08-13T23:17:29.896Z,65.01
2023-08-13T23:22:31.825Z,64.90
2023-08-13T23:27:33.717Z,64.94
2023-08-13T23:32:35.647Z,65.11
2023-08-13T23:37:37.593Z,64.73
2023-08-13T23:42:39.484Z,65.30
2023-08-13T23:47:41.283Z,65.05
2023-08-13T23:52:43.148Z,64.85
2023-08-13T23:57:45.029Z,64.97
